Akron, Michigan
Current Conditions -  °F | °C
As of 9:45 PM on Wednesday 26 Nov 2014 (Local Time) from KCFS Reporting Station
Overcast Overcast  
Wind Chill: 30°   Ceiling: 4700
Heat Index: 30°   Visibility: 10mi
Dew Point: 25°   Wind: 0mph
Humidity: 80%   Direction: 350°N
Pressure: 30.1"   Gusts: NA
Location:  43.57°N, 83.51°W
Report Text: KCFS 270245Z AUTO 35000KT 10SM SCT018 OVC047 M01/M04 A3010 RMK AO2
Loading
Personal Weather Stations






























Interactive Weather Map New forecast layout! Learn more

10-Day Weather Forecast

Advertisements
Track Severe Weather on mobile